createdAt,value
2019-01-18T00:00:15.725Z,93.53
2019-01-18T00:05:12.790Z,93.76
2019-01-18T00:10:12.629Z,94.09
2019-01-18T00:15:10.599Z,94.03
2019-01-18T00:20:14.666Z,93.77
2019-01-18T00:25:15.074Z,93.69
2019-01-18T00:30:14.655Z,93.37
2019-01-18T00:35:11.886Z,93.00
2019-01-18T00:40:15.205Z,93.67
2019-01-18T00:45:14.967Z,94.38
2019-01-18T00:50:14.710Z,94.48
2019-01-18T00:55:12.084Z,94.43
2019-01-18T01:00:22.658Z,94.69
2019-01-18T01:05:20.755Z,94.65
2019-01-18T01:10:19.517Z,94.52
2019-01-18T01:15:18.886Z,94.38
2019-01-18T01:20:18.623Z,94.01
2019-01-18T01:25:16.082Z,93.50
2019-01-18T01:30:24.498Z,93.15
2019-01-18T01:35:22.954Z,92.95
2019-01-18T01:40:26.670Z,92.04
2019-01-18T01:45:26.725Z,91.32
2019-01-18T01:50:28.539Z,90.21
2019-01-18T01:55:28.372Z,89.19
2019-01-18T02:00:26.963Z,88.47
2019-01-18T02:05:25.463Z,88.03
2019-01-18T02:10:23.577Z,87.27
2019-01-18T02:15:23.283Z,86.74
2019-01-18T02:20:21.956Z,86.68
2019-01-18T02:25:20.105Z,86.85
2019-01-18T02:30:38.303Z,87.30
2019-01-18T02:35:37.719Z,87.96
2019-01-18T02:40:34.550Z,88.56
2019-01-18T02:45:33.019Z,89.07
2019-01-18T02:50:29.889Z,89.96
2019-01-18T02:55:29.199Z,90.88
2019-01-18T03:00:31.957Z,91.24
2019-01-18T03:05:31.793Z,91.64
2019-01-18T03:10:30.198Z,90.42
2019-01-18T03:15:27.577Z,91.44
2019-01-18T03:20:26.358Z,91.74
2019-01-18T03:25:27.032Z,92.07
2019-01-18T03:30:24.470Z,91.06
2019-01-18T03:35:23.601Z,92.14
2019-01-18T03:40:31.020Z,92.71
2019-01-18T03:45:29.467Z,93.05
2019-01-18T03:50:30.786Z,93.49
2019-01-18T03:55:33.684Z,94.00
2019-01-18T04:00:31.078Z,94.13
2019-01-18T04:05:57.331Z,90.52
2019-01-18T04:10:56.305Z,91.81
2019-01-18T04:15:56.751Z,92.61
2019-01-18T04:21:05.024Z,93.23
2019-01-18T04:26:06.332Z,93.68
2019-01-18T04:31:08.017Z,90.94
2019-01-18T04:36:07.631Z,91.17
2019-01-18T04:41:05.641Z,91.82
2019-01-18T04:46:05.369Z,92.64
2019-01-18T04:51:02.110Z,93.33
2019-01-18T04:55:59.116Z,93.89
2019-01-18T05:00:57.225Z,94.32
2019-01-18T05:05:56.013Z,94.48
2019-01-18T05:10:53.006Z,94.63
2019-01-18T05:15:49.446Z,92.46
2019-01-18T05:20:45.503Z,92.24
2019-01-18T05:25:41.459Z,93.88
2019-01-18T05:30:37.482Z,94.69
2019-01-18T05:35:33.390Z,95.18
2019-01-18T05:40:29.277Z,95.18
2019-01-18T05:45:25.170Z,95.07
2019-01-18T05:50:23.369Z,94.79
2019-01-18T05:55:19.713Z,94.77
2019-01-18T06:00:35.895Z,94.50
2019-01-18T06:05:34.233Z,94.62
2019-01-18T06:10:30.130Z,95.37
2019-01-18T06:15:26.024Z,95.37
2019-01-18T06:20:25.250Z,95.39
2019-01-18T06:25:21.156Z,95.00
2019-01-18T06:30:18.680Z,94.16
2019-01-18T06:35:14.978Z,94.76
2019-01-18T06:40:13.482Z,95.40
2019-01-18T06:45:12.586Z,95.50
2019-01-18T06:50:10.901Z,95.31
2019-01-18T06:55:08.603Z,95.31
2019-01-18T07:00:08.340Z,94.86
2019-01-18T07:05:06.269Z,94.86
2019-01-18T07:10:07.975Z,95.24
2019-01-18T07:15:07.280Z,95.01
2019-01-18T07:20:07.003Z,94.99
2019-01-18T07:25:06.711Z,94.58
2019-01-18T07:30:09.224Z,94.68
2019-01-18T07:35:06.732Z,94.86
2019-01-18T07:40:06.358Z,94.53
2019-01-18T07:45:06.071Z,94.49
2019-01-18T07:50:02.679Z,94.60
2019-01-18T07:54:58.601Z,93.96
2019-01-18T07:59:54.469Z,93.67
2019-01-18T08:04:50.389Z,93.78
2019-01-18T08:09:46.297Z,94.68
2019-01-18T08:14:42.186Z,94.57
2019-01-18T08:19:38.776Z,94.80
2019-01-18T08:24:34.639Z,94.81
2019-01-18T08:29:30.541Z,94.43
2019-01-18T08:34:26.450Z,94.43
2019-01-18T08:39:22.347Z,94.25
2019-01-18T08:44:18.242Z,94.04
2019-01-18T08:49:15.566Z,93.59
2019-01-18T08:54:11.567Z,93.42
2019-01-18T08:59:07.461Z,92.81
2019-01-18T09:04:03.577Z,91.99
2019-01-18T09:08:59.486Z,91.68
2019-01-18T09:13:55.486Z,90.58
2019-01-18T09:18:51.405Z,90.10
2019-01-18T09:23:47.304Z,90.87
2019-01-18T09:28:43.244Z,90.34
2019-01-18T09:33:39.179Z,89.75
2019-01-18T09:38:35.077Z,89.88
2019-01-18T09:43:30.969Z,88.75
2019-01-18T09:48:27.028Z,88.07
2019-01-18T09:53:25.707Z,86.55
2019-01-18T09:58:24.607Z,86.38
2019-01-18T10:03:23.589Z,87.20
2019-01-18T10:08:19.605Z,88.35
2019-01-18T10:13:15.507Z,88.35
2019-01-18T10:18:11.469Z,88.59
2019-01-18T10:23:07.359Z,88.64
2019-01-18T10:28:03.449Z,86.55
2019-01-18T10:32:59.341Z,85.38
2019-01-18T10:37:55.334Z,84.96
2019-01-18T10:42:51.325Z,85.70
2019-01-18T10:47:48.423Z,85.37
2019-01-18T10:52:44.413Z,86.09
2019-01-18T10:57:40.505Z,86.33
2019-01-18T11:02:36.397Z,85.78
2019-01-18T11:07:32.297Z,84.98
2019-01-18T11:12:28.328Z,84.04
2019-01-18T11:17:24.217Z,83.81
2019-01-18T11:22:20.104Z,83.65
2019-01-18T11:27:15.996Z,84.53
2019-01-18T11:32:13.777Z,85.13
2019-01-18T11:37:09.792Z,83.62
2019-01-18T11:42:05.694Z,83.34
2019-01-18T11:47:01.580Z,83.15
2019-01-18T11:51:57.481Z,82.87
2019-01-18T11:56:53.375Z,82.07
2019-01-18T12:01:49.279Z,83.09
2019-01-18T12:06:45.198Z,83.09
2019-01-18T12:11:41.110Z,82.71
2019-01-18T12:16:37.002Z,83.07
2019-01-18T12:21:37.125Z,82.39
2019-01-18T12:26:30.694Z,81.09
2019-01-18T12:31:26.590Z,80.46
2019-01-18T12:36:26.867Z,81.35
2019-01-18T12:41:22.858Z,78.66
2019-01-18T12:46:18.801Z,77.85
2019-01-18T12:51:15.839Z,77.57
2019-01-18T12:56:15.582Z,77.41
2019-01-18T13:01:12.487Z,76.70
2019-01-18T13:06:08.638Z,76.34
2019-01-18T13:11:04.506Z,75.21
2019-01-18T13:16:06.828Z,75.70
2019-01-18T13:21:02.722Z,75.66
2019-01-18T13:25:59.563Z,74.61
2019-01-18T13:30:57.266Z,75.17
2019-01-18T13:35:53.904Z,75.37
2019-01-18T13:40:50.474Z,74.49
2019-01-18T13:45:47.295Z,73.21
2019-01-18T13:50:44.276Z,74.39
2019-01-18T13:55:41.394Z,73.57
2019-01-18T14:00:38.518Z,73.80
2019-01-18T14:05:35.636Z,73.55
2019-01-18T14:10:33.365Z,71.42
2019-01-18T14:15:30.231Z,71.07
2019-01-18T14:20:29.046Z,71.06
2019-01-18T14:25:26.149Z,70.27
2019-01-18T14:30:26.700Z,70.97
2019-01-18T14:35:23.643Z,69.84
2019-01-18T14:40:20.694Z,68.85
2019-01-18T14:45:20.722Z,69.09
2019-01-18T14:50:19.546Z,69.19
2019-01-18T14:55:16.627Z,70.14
2019-01-18T15:00:25.084Z,68.97
2019-01-18T15:05:22.007Z,69.35
2019-01-18T15:10:23.429Z,71.01
2019-01-18T15:15:20.240Z,70.85
2019-01-18T15:20:19.335Z,71.37
2019-01-18T15:25:15.700Z,71.81
2019-01-18T15:30:18.444Z,72.38
2019-01-18T15:35:23.715Z,72.82
2019-01-18T15:40:22.683Z,73.09
2019-01-18T15:45:19.576Z,73.53
2019-01-18T15:50:29.432Z,73.47
2019-01-18T15:55:26.466Z,73.95
2019-01-18T16:00:25.066Z,74.96
2019-01-18T16:05:21.086Z,76.35
2019-01-18T16:10:16.979Z,78.02
2019-01-18T16:15:16.020Z,79.18
2019-01-18T16:20:14.317Z,80.15
2019-01-18T16:25:18.847Z,80.67
2019-01-18T16:30:17.845Z,81.68
2019-01-18T16:35:15.139Z,82.39
2019-01-18T16:40:14.440Z,82.84
2019-01-18T16:45:11.136Z,83.23
2019-01-18T16:50:10.138Z,83.76
2019-01-18T16:55:11.485Z,84.22
2019-01-18T17:00:14.285Z,82.51
2019-01-18T17:05:10.302Z,83.49
2019-01-18T17:10:10.149Z,84.50
2019-01-18T17:15:09.548Z,85.24
2019-01-18T17:20:18.244Z,85.82
2019-01-18T17:25:14.207Z,86.16
2019-01-18T17:30:16.693Z,86.38
2019-01-18T17:35:18.913Z,86.59
2019-01-18T17:40:18.657Z,85.84
2019-01-18T17:45:36.721Z,86.22
2019-01-18T17:50:42.461Z,86.89
2019-01-18T17:55:48.451Z,87.39
2019-01-18T18:00:52.238Z,87.71
2019-01-18T18:06:11.063Z,87.97
2019-01-18T18:11:19.964Z,88.18
2019-01-18T18:16:31.567Z,88.39
2019-01-18T18:21:48.007Z,88.50
2019-01-18T18:27:28.818Z,88.60
2019-01-18T18:32:34.711Z,88.75
2019-01-18T18:38:00.280Z,89.01
2019-01-18T18:43:27.331Z,89.15
2019-01-18T18:48:30.135Z,89.43
2019-01-18T18:53:46.941Z,89.57
2019-01-18T18:58:50.087Z,89.69
2019-01-18T19:04:05.230Z,89.49
2019-01-18T19:09:28.100Z,89.70
2019-01-18T19:14:50.778Z,89.95
2019-01-18T19:20:11.529Z,90.12
2019-01-18T19:25:29.393Z,90.21
2019-01-18T19:30:29.107Z,90.52
2019-01-18T19:35:41.141Z,90.43
2019-01-18T19:40:58.017Z,90.34
2019-01-18T19:46:09.553Z,89.87
2019-01-18T19:51:15.105Z,90.25
2019-01-18T19:56:30.043Z,90.42
2019-01-18T20:01:39.152Z,89.97
2019-01-18T20:06:47.777Z,89.09
2019-01-18T20:12:16.041Z,89.37
2019-01-18T20:17:36.748Z,90.13
2019-01-18T20:22:45.000Z,90.75
2019-01-18T20:28:12.383Z,91.07
2019-01-18T20:33:28.730Z,91.33
2019-01-18T20:38:46.588Z,91.61
2019-01-18T20:43:49.257Z,91.65
2019-01-18T20:49:06.106Z,89.87
2019-01-18T20:54:39.012Z,90.71
2019-01-18T20:59:38.825Z,91.20
2019-01-18T21:04:50.823Z,91.61
2019-01-18T21:10:02.896Z,91.97
2019-01-18T21:15:02.696Z,92.08
2019-01-18T21:20:03.347Z,90.72
2019-01-18T21:25:10.052Z,91.05
2019-01-18T21:30:25.260Z,91.05
2019-01-18T21:35:41.863Z,91.38
2019-01-18T21:40:44.603Z,91.30
2019-01-18T21:46:11.413Z,91.82
2019-01-18T21:51:19.916Z,92.26
2019-01-18T21:56:27.930Z,92.47
2019-01-18T22:01:36.530Z,92.54
2019-01-18T22:06:55.662Z,92.74
2019-01-18T22:12:10.249Z,92.58
2019-01-18T22:17:33.937Z,92.01
2019-01-18T22:22:48.870Z,91.73
2019-01-18T22:27:57.471Z,91.88
2019-01-18T22:33:06.412Z,92.00
2019-01-18T22:38:06.123Z,92.06
2019-01-18T22:43:12.077Z,92.14
2019-01-18T22:48:21.034Z,92.36
2019-01-18T22:53:49.202Z,92.40
2019-01-18T22:59:16.074Z,92.39
2019-01-18T23:04:21.652Z,92.32
2019-01-18T23:09:30.685Z,91.98
2019-01-18T23:14:48.512Z,91.85
2019-01-18T23:19:52.710Z,91.85
2019-01-18T23:24:52.381Z,90.85
2019-01-18T23:30:01.063Z,90.78
2019-01-18T23:35:03.808Z,91.46
2019-01-18T23:40:37.608Z,91.87
2019-01-18T23:45:46.338Z,91.46
2019-01-18T23:51:07.115Z,91.24
2019-01-18T23:56:15.605Z,90.81
